createdAt,value
2018-01-23T00:00:44.304Z,5.89
2018-01-23T00:03:12.127Z,5.87
2018-01-23T00:05:39.674Z,5.86
2018-01-23T00:08:07.387Z,5.83
2018-01-23T00:10:34.897Z,5.76
2018-01-23T00:13:02.441Z,5.81
2018-01-23T00:15:30.111Z,5.83
2018-01-23T00:17:57.628Z,5.90
2018-01-23T00:20:25.131Z,5.86
2018-01-23T00:22:52.651Z,5.82
2018-01-23T00:25:20.166Z,5.71
2018-01-23T00:27:47.694Z,5.72
2018-01-23T00:30:15.210Z,5.56
2018-01-23T00:32:42.723Z,5.53
2018-01-23T00:35:10.256Z,5.33
2018-01-23T00:37:37.762Z,5.21
2018-01-23T00:40:05.279Z,5.26
2018-01-23T00:42:32.797Z,5.30
2018-01-23T00:45:00.333Z,5.43
2018-01-23T00:47:27.873Z,5.51
2018-01-23T00:49:55.402Z,5.59
2018-01-23T00:52:22.921Z,5.60
2018-01-23T00:54:50.454Z,5.61
2018-01-23T00:57:17.994Z,5.67
2018-01-23T00:59:45.625Z,5.61
2018-01-23T01:02:13.153Z,5.80
2018-01-23T01:04:40.678Z,5.77
2018-01-23T01:07:08.172Z,5.75
2018-01-23T01:09:35.685Z,5.71
2018-01-23T01:12:03.258Z,5.70
2018-01-23T01:14:30.771Z,5.43
2018-01-23T01:16:58.333Z,5.42
2018-01-23T01:19:25.871Z,5.50
2018-01-23T01:21:53.391Z,5.49
2018-01-23T01:24:20.912Z,5.49
2018-01-23T01:26:48.416Z,5.35
2018-01-23T01:29:15.939Z,5.34
2018-01-23T01:31:43.483Z,5.22
2018-01-23T01:34:11.111Z,5.13
2018-01-23T01:36:38.632Z,5.08
2018-01-23T01:39:06.139Z,5.20
2018-01-23T01:41:33.663Z,5.28
2018-01-23T01:44:01.192Z,5.38
2018-01-23T01:46:28.731Z,5.38
2018-01-23T01:48:56.246Z,5.43
2018-01-23T01:51:23.773Z,5.45
2018-01-23T01:53:51.276Z,5.46
2018-01-23T01:56:18.806Z,5.31
2018-01-23T01:58:46.351Z,5.09
2018-01-23T02:01:13.861Z,5.07
2018-01-23T02:03:41.497Z,5.02
2018-01-23T02:06:09.001Z,4.99
2018-01-23T02:08:36.508Z,4.88
2018-01-23T02:11:04.012Z,4.89
2018-01-23T02:13:31.512Z,4.90
2018-01-23T02:15:59.034Z,4.99
2018-01-23T02:18:26.552Z,4.99
2018-01-23T02:20:54.156Z,4.94
2018-01-23T02:23:21.671Z,4.87
2018-01-23T02:25:49.192Z,4.83
2018-01-23T02:28:16.716Z,4.86
2018-01-23T02:30:44.227Z,4.92
2018-01-23T02:33:11.758Z,4.97
2018-01-23T02:35:39.288Z,5.05
2018-01-23T02:38:06.815Z,5.07
2018-01-23T02:40:34.323Z,5.13
2018-01-23T02:43:01.838Z,5.08
2018-01-23T02:45:29.344Z,4.92
2018-01-23T02:47:56.853Z,5.01
2018-01-23T02:50:24.388Z,5.11
2018-01-23T02:52:51.912Z,5.06
2018-01-23T02:55:19.472Z,4.95
2018-01-23T02:57:46.989Z,4.93
2018-01-23T03:00:14.518Z,4.94
2018-01-23T03:02:42.028Z,4.90
2018-01-23T03:05:09.549Z,4.91
2018-01-23T03:07:37.080Z,4.98
2018-01-23T03:10:04.588Z,5.15
2018-01-23T03:12:32.108Z,5.11
2018-01-23T03:14:59.628Z,5.12
2018-01-23T03:17:27.132Z,4.89
2018-01-23T03:19:54.637Z,4.72
2018-01-23T03:22:22.139Z,4.75
2018-01-23T03:24:49.647Z,4.86
2018-01-23T03:27:17.156Z,4.94
2018-01-23T03:29:44.663Z,5.02
2018-01-23T03:32:12.174Z,5.11
2018-01-23T03:34:39.696Z,5.18
2018-01-23T03:37:11.053Z,5.20
2018-01-23T03:39:38.569Z,5.21
2018-01-23T03:42:06.086Z,5.26
2018-01-23T03:44:33.602Z,5.25
2018-01-23T03:47:01.142Z,5.25
2018-01-23T03:49:28.651Z,5.26
2018-01-23T03:51:56.159Z,5.30
2018-01-23T03:54:23.687Z,5.44
2018-01-23T03:56:51.211Z,5.32
2018-01-23T03:59:18.736Z,5.05
2018-01-23T04:01:46.257Z,5.16
2018-01-23T04:04:13.787Z,5.13
2018-01-23T04:06:41.298Z,5.03
2018-01-23T04:09:08.849Z,5.16
2018-01-23T04:11:36.419Z,5.41
2018-01-23T04:14:03.939Z,5.54
2018-01-23T04:16:31.452Z,5.35
2018-01-23T04:18:58.977Z,5.31
2018-01-23T04:21:26.501Z,5.22
2018-01-23T04:23:54.787Z,5.46
2018-01-23T04:26:22.312Z,5.33
2018-01-23T04:28:49.843Z,5.32
2018-01-23T04:31:17.362Z,5.42
2018-01-23T04:33:44.869Z,5.47
2018-01-23T04:36:12.387Z,5.52
2018-01-23T04:38:39.920Z,5.41
2018-01-23T04:41:07.432Z,5.33
2018-01-23T04:43:34.923Z,5.31
2018-01-23T04:46:02.438Z,5.11
2018-01-23T04:48:29.964Z,4.95
2018-01-23T04:50:57.489Z,4.92
2018-01-23T04:53:25.032Z,4.82
2018-01-23T04:55:52.544Z,4.78
2018-01-23T04:58:20.074Z,4.78
2018-01-23T05:00:47.592Z,4.81
2018-01-23T05:03:15.134Z,4.82
2018-01-23T05:05:42.687Z,4.95
2018-01-23T05:08:10.212Z,4.90
2018-01-23T05:10:37.742Z,4.87
2018-01-23T05:13:05.254Z,4.93
2018-01-23T05:15:32.783Z,4.99
2018-01-23T05:18:00.304Z,5.00
2018-01-23T05:20:27.833Z,5.18
2018-01-23T05:22:55.384Z,5.08
2018-01-23T05:25:22.908Z,5.06
2018-01-23T05:27:50.537Z,5.04
2018-01-23T05:30:18.070Z,4.95
2018-01-23T05:32:45.597Z,4.77
2018-01-23T05:35:13.114Z,4.81
2018-01-23T05:37:40.642Z,4.95
2018-01-23T05:40:08.167Z,4.90
2018-01-23T05:42:35.702Z,4.88
2018-01-23T05:45:03.224Z,5.02
2018-01-23T05:47:30.738Z,5.20
2018-01-23T05:49:58.259Z,5.40
2018-01-23T05:52:25.767Z,5.35
2018-01-23T05:54:53.279Z,5.35
2018-01-23T05:57:20.797Z,5.24
2018-01-23T05:59:48.313Z,5.17
2018-01-23T06:02:15.835Z,4.98
2018-01-23T06:04:43.342Z,4.82
2018-01-23T06:07:11.042Z,4.90
2018-01-23T06:09:38.578Z,4.90
2018-01-23T06:12:06.127Z,4.76
2018-01-23T06:14:33.813Z,4.76
2018-01-23T06:17:01.404Z,4.77
2018-01-23T06:19:28.920Z,4.84
2018-01-23T06:21:56.444Z,4.60
2018-01-23T06:24:23.972Z,4.64
2018-01-23T06:26:51.474Z,4.76
2018-01-23T06:29:19.004Z,4.75
2018-01-23T06:31:46.513Z,4.63
2018-01-23T06:34:14.015Z,4.71
2018-01-23T06:36:41.557Z,4.66
2018-01-23T06:39:09.064Z,4.69
2018-01-23T06:41:36.622Z,4.66
2018-01-23T06:44:04.124Z,4.70
2018-01-23T06:46:31.638Z,4.58
2018-01-23T06:48:59.177Z,4.63
2018-01-23T06:51:26.683Z,4.60
2018-01-23T06:53:54.192Z,4.49
2018-01-23T06:56:21.729Z,4.59
2018-01-23T06:58:49.277Z,4.60
2018-01-23T07:01:16.802Z,4.88
2018-01-23T07:03:44.314Z,4.75
2018-01-23T07:06:11.853Z,4.52
2018-01-23T07:08:39.354Z,4.30
2018-01-23T07:11:06.870Z,4.30
2018-01-23T07:13:34.399Z,4.46
2018-01-23T07:16:01.931Z,4.55
2018-01-23T07:18:29.465Z,4.50
2018-01-23T07:20:57.000Z,4.39
2018-01-23T07:23:24.768Z,4.40
2018-01-23T07:25:52.317Z,4.52
2018-01-23T07:28:19.832Z,4.62
2018-01-23T07:30:47.356Z,4.58
2018-01-23T07:33:14.875Z,4.62
2018-01-23T07:35:42.399Z,4.67
2018-01-23T07:38:10.023Z,4.93
2018-01-23T07:40:37.550Z,5.01
2018-01-23T07:43:05.063Z,5.22
2018-01-23T07:45:32.602Z,5.51
2018-01-23T07:48:00.134Z,5.54
2018-01-23T07:50:27.677Z,5.39
2018-01-23T07:52:55.199Z,5.38
2018-01-23T07:55:22.702Z,5.38
2018-01-23T07:57:50.583Z,5.30
2018-01-23T08:00:19.544Z,5.44
2018-01-23T08:02:47.070Z,5.53
2018-01-23T08:05:14.580Z,5.85
2018-01-23T08:07:42.100Z,5.64
2018-01-23T08:10:09.628Z,5.51
2018-01-23T08:12:37.153Z,5.61
2018-01-23T08:15:04.667Z,5.60
2018-01-23T08:17:32.172Z,5.60
2018-01-23T08:19:59.684Z,5.55
2018-01-23T08:22:27.194Z,5.79
2018-01-23T08:24:54.779Z,5.88
2018-01-23T08:27:22.293Z,5.69
2018-01-23T08:29:49.838Z,5.74
2018-01-23T08:32:17.352Z,5.83
2018-01-23T08:34:44.880Z,5.95
2018-01-23T08:37:12.398Z,5.87
2018-01-23T08:39:39.934Z,5.95
2018-01-23T08:42:07.458Z,5.77
2018-01-23T08:44:34.982Z,5.94
2018-01-23T08:47:02.500Z,6.05
2018-01-23T08:49:30.119Z,6.08
2018-01-23T08:51:57.642Z,6.04
2018-01-23T08:54:25.383Z,6.13
2018-01-23T08:56:52.910Z,6.31
2018-01-23T08:59:20.442Z,6.36
2018-01-23T09:01:47.969Z,6.64
2018-01-23T09:04:15.597Z,6.78
2018-01-23T09:06:51.659Z,6.90
2018-01-23T09:09:19.158Z,6.50
2018-01-23T09:11:46.683Z,6.72
2018-01-23T09:14:14.194Z,6.72
2018-01-23T09:16:41.709Z,6.47
2018-01-23T09:19:09.219Z,6.84
2018-01-23T09:21:36.700Z,6.98
2018-01-23T09:24:04.218Z,6.91
2018-01-23T09:26:31.735Z,7.07
2018-01-23T09:28:59.243Z,7.04
2018-01-23T09:31:26.769Z,6.84
2018-01-23T09:33:54.265Z,6.98
2018-01-23T09:36:21.789Z,6.95
2018-01-23T09:38:49.324Z,6.89
2018-01-23T09:41:16.899Z,7.08
2018-01-23T09:43:44.424Z,7.20
2018-01-23T09:46:11.939Z,7.12
2018-01-23T09:48:39.577Z,7.27
2018-01-23T09:51:07.089Z,7.46
2018-01-23T09:53:34.609Z,6.99
2018-01-23T09:56:02.108Z,7.19
2018-01-23T09:58:29.634Z,7.34
2018-01-23T10:00:57.150Z,7.39
2018-01-23T10:03:24.685Z,7.01
2018-01-23T10:05:52.209Z,7.14
2018-01-23T10:08:19.748Z,7.14
2018-01-23T10:10:47.273Z,7.33
2018-01-23T10:13:14.802Z,7.42
2018-01-23T10:15:42.308Z,7.30
2018-01-23T10:18:09.825Z,7.54
2018-01-23T10:20:37.352Z,7.45
2018-01-23T10:23:04.874Z,7.67
2018-01-23T10:25:32.379Z,7.56
2018-01-23T10:27:59.897Z,8.14
2018-01-23T10:30:27.414Z,7.97
2018-01-23T10:32:54.980Z,8.15
2018-01-23T10:35:22.522Z,8.30
2018-01-23T10:37:50.038Z,8.39
2018-01-23T10:40:17.569Z,8.64
2018-01-23T10:42:45.085Z,8.85
2018-01-23T10:45:12.623Z,8.70
2018-01-23T10:47:40.153Z,8.72
2018-01-23T10:50:07.669Z,8.97
2018-01-23T10:52:35.189Z,9.03
2018-01-23T10:55:02.705Z,9.10
2018-01-23T10:57:30.429Z,8.82
2018-01-23T10:59:57.944Z,8.61
2018-01-23T11:02:25.478Z,9.07
2018-01-23T11:04:53.014Z,8.96
2018-01-23T11:07:20.508Z,8.98
2018-01-23T11:09:48.074Z,9.17
2018-01-23T11:12:15.589Z,9.03
2018-01-23T11:14:43.134Z,9.27
2018-01-23T11:17:10.648Z,9.27
2018-01-23T11:19:38.173Z,8.87
2018-01-23T11:22:05.697Z,8.88
2018-01-23T11:24:33.604Z,9.41
2018-01-23T11:27:01.138Z,9.27
2018-01-23T11:29:28.679Z,8.92
2018-01-23T11:31:56.200Z,8.49
2018-01-23T11:34:23.728Z,8.80
2018-01-23T11:36:51.244Z,8.89
2018-01-23T11:39:18.801Z,9.46
2018-01-23T11:41:46.273Z,9.27
2018-01-23T11:44:13.767Z,10.77
2018-01-23T11:46:41.315Z,10.88
2018-01-23T11:49:08.848Z,12.08
2018-01-23T11:51:36.395Z,11.70
2018-01-23T11:54:03.915Z,13.55
2018-01-23T11:56:31.454Z,13.98
2018-01-23T11:58:58.984Z,14.13
2018-01-23T12:01:26.520Z,14.36
2018-01-23T12:03:54.110Z,16.24
2018-01-23T12:06:21.655Z,14.84
2018-01-23T12:08:49.182Z,14.54
2018-01-23T12:11:16.786Z,13.96
2018-01-23T12:13:44.319Z,13.52
2018-01-23T12:16:11.828Z,14.43
2018-01-23T12:18:39.334Z,13.92
2018-01-23T12:21:06.883Z,13.25
2018-01-23T12:23:34.402Z,11.23
2018-01-23T12:26:01.929Z,12.34
2018-01-23T12:28:29.479Z,13.45
2018-01-23T12:30:56.980Z,14.09
2018-01-23T12:33:24.500Z,15.44
2018-01-23T12:35:52.015Z,14.26
2018-01-23T12:38:19.524Z,15.92
2018-01-23T12:40:47.061Z,14.06
2018-01-23T12:43:14.602Z,12.84
2018-01-23T12:45:42.134Z,12.29
2018-01-23T12:48:09.659Z,11.71
2018-01-23T12:50:37.174Z,11.16
2018-01-23T12:53:04.712Z,10.07
2018-01-23T12:55:32.223Z,9.86
2018-01-23T12:57:59.755Z,9.13
2018-01-23T13:00:27.303Z,8.93
2018-01-23T13:02:54.849Z,9.04
2018-01-23T13:05:22.445Z,8.94
2018-01-23T13:07:49.958Z,8.82
2018-01-23T13:10:17.479Z,8.87
2018-01-23T13:12:45.024Z,8.76
2018-01-23T13:15:12.574Z,8.52
2018-01-23T13:17:40.106Z,8.38
2018-01-23T13:20:07.620Z,8.57
2018-01-23T13:22:35.131Z,8.33
2018-01-23T13:25:02.669Z,8.62
2018-01-23T13:27:30.186Z,8.55
2018-01-23T13:29:57.709Z,8.38
2018-01-23T13:32:25.217Z,8.76
2018-01-23T13:34:52.719Z,8.85
2018-01-23T13:37:20.219Z,8.73
2018-01-23T13:39:47.734Z,8.66
2018-01-23T13:42:15.245Z,8.61
2018-01-23T13:44:42.757Z,8.48
2018-01-23T13:47:10.279Z,8.63
2018-01-23T13:49:37.800Z,8.77
2018-01-23T13:52:05.329Z,8.65
2018-01-23T13:54:32.840Z,8.97
2018-01-23T13:57:00.345Z,8.75
2018-01-23T13:59:27.854Z,8.71
2018-01-23T14:01:55.389Z,8.92
2018-01-23T14:04:22.904Z,9.08
2018-01-23T14:06:50.444Z,9.07
2018-01-23T14:09:17.964Z,9.43
2018-01-23T14:11:45.475Z,9.43
2018-01-23T14:14:12.990Z,9.23
2018-01-23T14:16:40.669Z,9.48
2018-01-23T14:19:08.189Z,9.16
2018-01-23T14:21:35.722Z,9.05
2018-01-23T14:24:03.243Z,9.02
2018-01-23T14:26:30.810Z,9.07
2018-01-23T14:28:58.382Z,8.99
2018-01-23T14:31:25.944Z,9.06
2018-01-23T14:33:53.482Z,9.09
2018-01-23T14:36:20.996Z,9.05
2018-01-23T14:38:48.513Z,9.31
2018-01-23T14:41:16.043Z,9.50
2018-01-23T14:43:43.588Z,9.40
2018-01-23T14:46:11.121Z,9.37
2018-01-23T14:48:38.676Z,9.54
2018-01-23T14:51:06.179Z,9.24
2018-01-23T14:53:33.718Z,9.01
2018-01-23T14:56:01.251Z,8.88
2018-01-23T14:58:28.758Z,8.85
2018-01-23T15:00:56.405Z,8.84
2018-01-23T15:03:23.942Z,8.63
2018-01-23T15:05:51.706Z,8.53
2018-01-23T15:08:19.242Z,8.64
2018-01-23T15:10:46.879Z,8.61
2018-01-23T15:13:14.419Z,8.78
2018-01-23T15:15:41.933Z,8.86
2018-01-23T15:18:09.470Z,8.48
2018-01-23T15:20:36.998Z,8.30
2018-01-23T15:23:04.534Z,8.25
2018-01-23T15:25:32.056Z,8.37
2018-01-23T15:27:59.596Z,8.25
2018-01-23T15:30:27.175Z,8.12
2018-01-23T15:32:54.705Z,8.28
2018-01-23T15:35:22.277Z,8.31
2018-01-23T15:37:49.788Z,8.13
2018-01-23T15:40:17.338Z,8.07
2018-01-23T15:42:44.852Z,8.02
2018-01-23T15:45:12.375Z,8.08
2018-01-23T15:47:39.915Z,8.04
2018-01-23T15:50:07.459Z,8.04
2018-01-23T15:52:34.966Z,8.06
2018-01-23T15:55:02.484Z,7.93
2018-01-23T15:57:30.031Z,8.01
2018-01-23T15:59:57.569Z,7.93
2018-01-23T16:02:25.086Z,7.87
2018-01-23T16:04:52.605Z,7.82
2018-01-23T16:07:20.234Z,7.81
2018-01-23T16:09:47.793Z,7.82
2018-01-23T16:12:15.315Z,7.75
2018-01-23T16:14:42.861Z,7.50
2018-01-23T16:17:10.369Z,7.69
2018-01-23T16:19:37.908Z,7.63
2018-01-23T16:22:05.430Z,7.67
2018-01-23T16:24:32.937Z,7.54
2018-01-23T16:27:00.454Z,7.72
2018-01-23T16:29:27.974Z,7.59
2018-01-23T16:31:55.498Z,7.58
2018-01-23T16:34:22.999Z,7.82
2018-01-23T16:36:50.521Z,7.76
2018-01-23T16:39:18.055Z,7.66
2018-01-23T16:41:45.593Z,7.63
2018-01-23T16:44:13.129Z,7.64
2018-01-23T16:46:40.670Z,7.55
2018-01-23T16:49:08.330Z,7.39
2018-01-23T16:51:35.850Z,7.35
2018-01-23T16:54:03.395Z,7.29
2018-01-23T16:56:30.996Z,7.27
2018-01-23T16:58:58.530Z,7.41
2018-01-23T17:01:26.070Z,7.48
2018-01-23T17:03:53.620Z,7.62
2018-01-23T17:06:21.143Z,7.48
2018-01-23T17:08:48.681Z,7.59
2018-01-23T17:11:16.214Z,7.52
2018-01-23T17:13:43.760Z,7.42
2018-01-23T17:16:11.281Z,7.49
2018-01-23T17:18:38.796Z,7.66
2018-01-23T17:21:06.326Z,7.44
2018-01-23T17:23:33.854Z,7.33
2018-01-23T17:26:01.365Z,7.31
2018-01-23T17:28:29.284Z,7.33
2018-01-23T17:30:57.241Z,7.20
2018-01-23T17:33:25.220Z,7.55
2018-01-23T17:35:53.180Z,7.05
2018-01-23T17:38:21.050Z,6.91
2018-01-23T17:40:49.016Z,7.01
2018-01-23T17:43:16.991Z,7.09
2018-01-23T17:45:44.827Z,7.23
2018-01-23T17:48:12.829Z,6.90
2018-01-23T17:50:40.690Z,6.89
2018-01-23T17:53:08.560Z,6.60
2018-01-23T17:55:36.525Z,6.35
2018-01-23T17:58:04.387Z,6.16
2018-01-23T18:00:36.154Z,6.15
2018-01-23T18:03:04.125Z,6.22
2018-01-23T18:05:31.985Z,5.94
2018-01-23T18:07:59.853Z,5.77
2018-01-23T18:10:27.721Z,5.59
2018-01-23T18:12:55.589Z,5.43
2018-01-23T18:15:23.314Z,5.14
2018-01-23T18:17:51.001Z,4.86
2018-01-23T18:20:18.611Z,4.67
2018-01-23T18:22:46.156Z,4.58
2018-01-23T18:25:13.684Z,4.56
2018-01-23T18:27:41.198Z,4.71
2018-01-23T18:30:08.746Z,4.38
2018-01-23T18:32:36.294Z,4.21
2018-01-23T18:35:03.865Z,4.18
2018-01-23T18:37:31.419Z,3.95
2018-01-23T18:39:58.962Z,3.92
2018-01-23T18:42:26.499Z,3.79
2018-01-23T18:44:54.152Z,3.55
2018-01-23T18:47:22.036Z,3.31
2018-01-23T18:49:49.691Z,3.28
2018-01-23T18:52:17.508Z,3.21
2018-01-23T18:54:45.534Z,3.17
2018-01-23T18:57:13.491Z,3.12
2018-01-23T18:59:41.339Z,3.06
2018-01-23T19:02:09.125Z,3.02
2018-01-23T19:04:36.996Z,2.92
2018-01-23T19:07:04.965Z,2.80
2018-01-23T19:09:32.830Z,2.70
2018-01-23T19:12:00.695Z,2.60
2018-01-23T19:14:28.531Z,2.55
2018-01-23T19:16:56.429Z,2.54
2018-01-23T19:19:24.297Z,2.50
2018-01-23T19:21:52.171Z,2.66
2018-01-23T19:24:19.901Z,2.58
2018-01-23T19:26:47.464Z,2.36
2018-01-23T19:29:15.011Z,2.50
2018-01-23T19:31:42.554Z,2.34
2018-01-23T19:34:10.076Z,2.20
2018-01-23T19:36:37.595Z,2.14
2018-01-23T19:39:05.127Z,2.13
2018-01-23T19:41:32.651Z,2.16
2018-01-23T19:44:00.205Z,2.13
2018-01-23T19:46:27.770Z,2.07
2018-01-23T19:48:55.321Z,2.12
2018-01-23T19:51:22.875Z,2.18
2018-01-23T19:53:50.442Z,2.28
2018-01-23T19:56:17.975Z,2.06
2018-01-23T19:58:45.491Z,1.98
2018-01-23T20:01:13.139Z,1.97
2018-01-23T20:03:40.679Z,1.81
2018-01-23T20:06:08.367Z,1.82
2018-01-23T20:08:35.891Z,1.96
2018-01-23T20:11:03.431Z,1.93
2018-01-23T20:13:31.194Z,1.98
2018-01-23T20:15:58.730Z,1.87
2018-01-23T20:18:26.290Z,1.95
2018-01-23T20:20:53.804Z,2.06
2018-01-23T20:23:21.361Z,2.12
2018-01-23T20:25:48.895Z,2.18
2018-01-23T20:28:16.421Z,2.26
2018-01-23T20:30:43.954Z,2.42
2018-01-23T20:33:11.505Z,2.46
2018-01-23T20:35:39.065Z,2.49
2018-01-23T20:38:06.620Z,2.49
2018-01-23T20:40:34.266Z,2.62
2018-01-23T20:43:01.794Z,2.55
2018-01-23T20:45:29.375Z,2.35
2018-01-23T20:47:56.909Z,2.19
2018-01-23T20:50:24.461Z,2.31
2018-01-23T20:52:52.004Z,2.16
2018-01-23T20:55:19.540Z,2.26
2018-01-23T20:57:47.091Z,2.31
2018-01-23T21:00:14.640Z,2.16
2018-01-23T21:02:42.511Z,2.10
2018-01-23T21:05:10.040Z,2.20
2018-01-23T21:07:37.585Z,2.43
2018-01-23T21:10:05.159Z,2.56
2018-01-23T21:12:32.664Z,2.63
2018-01-23T21:15:00.273Z,2.49
2018-01-23T21:17:27.802Z,2.35
2018-01-23T21:19:55.325Z,2.21
2018-01-23T21:22:22.854Z,2.04
2018-01-23T21:24:50.369Z,2.19
2018-01-23T21:27:17.902Z,2.11
2018-01-23T21:29:45.418Z,2.12
2018-01-23T21:32:12.950Z,2.11
2018-01-23T21:34:40.571Z,2.19
2018-01-23T21:37:08.116Z,2.37
2018-01-23T21:39:35.775Z,2.39
2018-01-23T21:42:03.323Z,2.23
2018-01-23T21:44:30.850Z,2.18
2018-01-23T21:46:58.381Z,2.28
2018-01-23T21:49:25.905Z,2.39
2018-01-23T21:51:53.411Z,2.49
2018-01-23T21:54:20.973Z,2.74
2018-01-23T21:56:48.506Z,2.75
2018-01-23T21:59:16.059Z,2.74
2018-01-23T22:01:43.590Z,2.73
2018-01-23T22:04:11.100Z,2.90
2018-01-23T22:06:38.845Z,2.89
2018-01-23T22:09:06.385Z,2.96
2018-01-23T22:11:33.911Z,2.98
2018-01-23T22:14:01.455Z,3.01
2018-01-23T22:16:28.979Z,3.08
2018-01-23T22:18:56.474Z,3.18
2018-01-23T22:21:23.985Z,3.31
2018-01-23T22:23:51.495Z,3.41
2018-01-23T22:26:19.135Z,3.49
2018-01-23T22:28:46.671Z,3.64
2018-01-23T22:31:14.190Z,3.75
2018-01-23T22:33:41.744Z,3.85
2018-01-23T22:36:09.270Z,3.90
2018-01-23T22:38:36.796Z,3.91
2018-01-23T22:41:04.316Z,4.01
2018-01-23T22:43:31.851Z,4.21
2018-01-23T22:45:59.421Z,4.23
2018-01-23T22:48:26.954Z,4.18
2018-01-23T22:50:54.478Z,4.12
2018-01-23T22:53:22.004Z,4.27
2018-01-23T22:55:49.721Z,4.34
2018-01-23T22:58:17.384Z,4.49
2018-01-23T23:00:44.886Z,4.52
2018-01-23T23:03:12.410Z,4.49
2018-01-23T23:05:39.919Z,4.51
2018-01-23T23:08:07.474Z,4.67
2018-01-23T23:10:35.010Z,4.80
2018-01-23T23:13:02.530Z,4.75
2018-01-23T23:15:30.035Z,4.70
2018-01-23T23:17:57.556Z,4.81
2018-01-23T23:20:25.075Z,4.73
2018-01-23T23:22:52.586Z,4.86
2018-01-23T23:25:20.108Z,4.75
2018-01-23T23:27:47.636Z,4.82
2018-01-23T23:30:15.160Z,5.29
2018-01-23T23:32:42.701Z,5.34
2018-01-23T23:35:10.211Z,5.53
2018-01-23T23:37:37.724Z,5.45
2018-01-23T23:40:05.279Z,5.37
2018-01-23T23:42:32.820Z,5.48
2018-01-23T23:45:00.334Z,5.32
2018-01-23T23:47:27.846Z,5.39
2018-01-23T23:49:55.379Z,5.41
2018-01-23T23:52:23.896Z,5.34
2018-01-23T23:54:51.399Z,5.39
2018-01-23T23:57:18.921Z,5.48
2018-01-23T23:59:46.441Z,5.72
